createdAt,value
2022-10-20T00:02:34.328Z,16.83
2022-10-20T00:05:20.845Z,16.78
2022-10-20T00:08:06.680Z,16.72
2022-10-20T00:10:54.763Z,16.64
2022-10-20T00:13:41.984Z,16.65
2022-10-20T00:16:30.510Z,16.60
2022-10-20T00:19:16.724Z,16.52
2022-10-20T00:22:02.547Z,16.49
2022-10-20T00:24:48.610Z,16.48
2022-10-20T00:27:34.571Z,16.48
2022-10-20T00:30:22.543Z,16.48
2022-10-20T00:33:11.154Z,16.47
2022-10-20T00:36:00.026Z,16.43
2022-10-20T00:38:46.428Z,16.34
2022-10-20T00:41:33.219Z,16.37
2022-10-20T00:44:59.831Z,16.33
2022-10-20T00:47:54.410Z,16.28
2022-10-20T00:50:43.578Z,16.33
2022-10-20T00:53:30.260Z,16.26
2022-10-20T00:56:16.564Z,16.26
2022-10-20T00:59:03.433Z,16.21
2022-10-20T01:01:49.978Z,16.21
2022-10-20T01:04:37.625Z,16.16
2022-10-20T01:07:23.816Z,16.09
2022-10-20T01:10:10.148Z,16.04
2022-10-20T01:12:55.968Z,16.03
2022-10-20T01:15:59.900Z,16.03
2022-10-20T01:18:56.082Z,16.04
2022-10-20T01:22:06.534Z,15.96
2022-10-20T01:25:06.600Z,15.98
2022-10-20T01:28:03.313Z,15.91
2022-10-20T01:30:56.813Z,15.95
2022-10-20T01:33:56.530Z,15.93
2022-10-20T01:37:10.313Z,15.88
2022-10-20T01:40:21.865Z,15.81
2022-10-20T01:43:10.476Z,15.78
2022-10-20T01:45:57.775Z,15.78
2022-10-20T01:48:44.489Z,15.75
2022-10-20T01:51:31.373Z,15.76
2022-10-20T01:54:25.686Z,15.67
2022-10-20T01:57:27.873Z,15.60
2022-10-20T02:00:17.645Z,15.64
2022-10-20T02:03:12.740Z,15.62
2022-10-20T02:06:01.615Z,15.57
2022-10-20T02:08:50.609Z,15.57
2022-10-20T02:11:49.696Z,15.57
2022-10-20T02:14:36.620Z,15.47
2022-10-20T02:17:22.386Z,15.49
2022-10-20T02:20:08.837Z,15.46
2022-10-20T02:22:56.010Z,15.35
2022-10-20T02:25:42.392Z,15.34
2022-10-20T02:28:28.549Z,15.33
2022-10-20T02:31:14.548Z,15.18
2022-10-20T02:34:00.874Z,15.17
2022-10-20T02:36:46.727Z,15.25
2022-10-20T02:39:32.547Z,15.21
2022-10-20T02:42:18.576Z,15.26
2022-10-20T02:45:04.677Z,15.11
2022-10-20T02:47:50.622Z,15.18
2022-10-20T02:50:37.320Z,15.16
2022-10-20T02:53:23.186Z,15.18
2022-10-20T02:56:09.050Z,15.09
2022-10-20T02:58:55.555Z,15.01
2022-10-20T03:01:41.812Z,15.11
2022-10-20T03:04:27.905Z,14.98
2022-10-20T03:07:14.471Z,14.98
2022-10-20T03:10:00.676Z,14.97
2022-10-20T03:12:46.883Z,14.85
2022-10-20T03:15:32.758Z,14.87
2022-10-20T03:18:18.958Z,14.88
2022-10-20T03:21:04.878Z,14.75
2022-10-20T03:23:50.775Z,14.80
2022-10-20T03:26:36.841Z,14.73
2022-10-20T03:29:22.690Z,14.70
2022-10-20T03:32:08.509Z,14.59
2022-10-20T03:34:54.496Z,14.52
2022-10-20T03:37:40.281Z,14.55
2022-10-20T03:40:26.213Z,14.50
2022-10-20T03:43:12.122Z,14.47
2022-10-20T03:46:06.551Z,14.32
2022-10-20T03:48:52.750Z,14.39
2022-10-20T03:51:38.678Z,14.31
2022-10-20T03:54:24.874Z,14.25
2022-10-20T03:57:10.929Z,14.32
2022-10-20T03:59:56.912Z,14.26
2022-10-20T04:02:44.508Z,14.25
2022-10-20T04:05:30.707Z,14.22
2022-10-20T04:08:16.990Z,14.20
2022-10-20T04:11:02.746Z,14.13
2022-10-20T04:13:48.597Z,14.20
2022-10-20T04:16:34.604Z,14.13
2022-10-20T04:19:20.806Z,14.04
2022-10-20T04:22:06.781Z,14.06
2022-10-20T04:24:52.663Z,13.96
2022-10-20T04:27:39.808Z,13.92
2022-10-20T04:30:26.475Z,13.85
2022-10-20T04:33:13.371Z,13.81
2022-10-20T04:36:10.641Z,13.89
2022-10-20T04:38:56.605Z,13.76
2022-10-20T04:41:42.603Z,13.78
2022-10-20T04:48:07.017Z,13.51
2022-10-20T04:51:03.174Z,13.30
2022-10-20T04:53:49.538Z,13.24
2022-10-20T04:56:35.363Z,13.24
2022-10-20T04:59:21.422Z,13.21
2022-10-20T05:02:08.302Z,13.02
2022-10-20T05:04:54.195Z,13.13
2022-10-20T05:07:40.308Z,13.15
2022-10-20T05:10:26.159Z,13.10
2022-10-20T05:13:12.093Z,13.15
2022-10-20T05:15:58.055Z,13.15
2022-10-20T05:18:44.612Z,13.15
2022-10-20T05:21:31.818Z,13.20
2022-10-20T05:24:20.892Z,13.15
2022-10-20T05:27:08.394Z,13.15
2022-10-20T05:29:54.391Z,13.07
2022-10-20T05:32:40.530Z,13.14
2022-10-20T05:35:27.975Z,13.13
2022-10-20T05:38:14.037Z,13.15
2022-10-20T05:41:07.106Z,13.07
2022-10-20T05:43:58.257Z,12.98
2022-10-20T05:54:33.040Z,11.89
2022-10-20T05:57:19.041Z,11.96
2022-10-20T06:00:05.649Z,12.07
2022-10-20T06:02:58.010Z,12.19
2022-10-20T06:05:44.269Z,12.35
2022-10-20T06:08:33.810Z,12.45
2022-10-20T06:11:20.207Z,12.55
2022-10-20T06:14:06.953Z,12.59
2022-10-20T06:16:54.002Z,12.65
2022-10-20T06:19:39.849Z,12.80
2022-10-20T06:22:25.854Z,12.91
2022-10-20T06:25:11.745Z,12.96
2022-10-20T06:27:57.692Z,13.00
2022-10-20T06:30:43.609Z,12.98
2022-10-20T06:33:30.369Z,13.14
2022-10-20T06:36:16.732Z,13.24
2022-10-20T06:39:04.618Z,13.29
2022-10-20T06:41:52.643Z,13.33
2022-10-20T06:44:38.753Z,13.37
2022-10-20T06:47:24.955Z,13.48
2022-10-20T06:50:10.831Z,13.54
2022-10-20T06:52:56.771Z,13.60
2022-10-20T06:55:42.648Z,13.65
2022-10-20T06:58:29.157Z,13.81
2022-10-20T07:01:20.876Z,13.93
2022-10-20T07:04:10.506Z,14.04
2022-10-20T07:06:56.722Z,14.04
2022-10-20T07:09:42.542Z,14.25
2022-10-20T07:12:28.400Z,14.29
2022-10-20T07:15:14.308Z,14.35
2022-10-20T07:18:00.154Z,14.44
2022-10-20T07:20:46.062Z,14.40
2022-10-20T07:23:33.050Z,14.66
2022-10-20T07:26:21.329Z,14.72
2022-10-20T07:29:08.295Z,14.82
2022-10-20T07:31:55.984Z,14.87
2022-10-20T07:34:43.583Z,14.97
2022-10-20T07:37:29.541Z,15.03
2022-10-20T07:40:15.533Z,15.09
2022-10-20T07:43:01.156Z,15.13
2022-10-20T07:45:47.161Z,15.35
2022-10-20T07:48:33.678Z,15.39
2022-10-20T07:51:25.878Z,15.60
2022-10-20T07:54:11.966Z,15.64
2022-10-20T07:56:58.288Z,15.69
2022-10-20T07:59:44.208Z,15.89
2022-10-20T08:02:30.238Z,15.92
2022-10-20T08:05:16.259Z,15.92
2022-10-20T08:08:02.404Z,15.97
2022-10-20T08:10:48.509Z,16.15
2022-10-20T08:13:34.620Z,16.17
2022-10-20T08:16:24.918Z,16.27
2022-10-20T08:19:19.751Z,16.23
2022-10-20T08:22:05.665Z,16.36
2022-10-20T08:24:51.688Z,16.45
2022-10-20T08:27:37.690Z,16.49
2022-10-20T08:30:24.478Z,16.56
2022-10-20T08:33:10.569Z,16.69
2022-10-20T08:35:56.831Z,16.60
2022-10-20T08:38:43.822Z,16.58
2022-10-20T08:41:55.371Z,16.68
2022-10-20T08:44:45.440Z,16.85
2022-10-20T08:47:34.888Z,16.84
2022-10-20T08:50:22.279Z,16.96
2022-10-20T08:53:10.418Z,17.09
2022-10-20T08:55:56.191Z,17.13
2022-10-20T08:58:45.354Z,17.18
2022-10-20T09:01:36.167Z,17.20
2022-10-20T09:04:38.042Z,17.28
2022-10-20T09:07:35.912Z,17.30
2022-10-20T09:10:33.057Z,17.34
2022-10-20T09:13:27.779Z,17.43
2022-10-20T09:16:33.327Z,17.49
2022-10-20T09:19:25.385Z,17.54
2022-10-20T09:22:12.355Z,17.58
2022-10-20T09:24:59.466Z,17.61
2022-10-20T09:27:45.902Z,17.69
2022-10-20T09:30:34.357Z,17.73
2022-10-20T09:33:32.223Z,17.63
2022-10-20T09:36:19.317Z,17.69
2022-10-20T09:39:05.364Z,17.80
2022-10-20T09:44:57.253Z,17.98
2022-10-20T09:47:44.371Z,17.97
2022-10-20T09:50:34.217Z,18.05
2022-10-20T09:53:24.465Z,18.11
2022-10-20T09:56:10.816Z,18.08
2022-10-20T09:58:58.229Z,18.05
2022-10-20T10:01:54.844Z,17.97
2022-10-20T10:04:46.232Z,18.14
2022-10-20T10:07:32.366Z,18.24
2022-10-20T10:10:18.565Z,18.28
2022-10-20T10:16:15.321Z,18.30
2022-10-20T10:19:02.944Z,18.34
2022-10-20T10:21:56.054Z,18.50
2022-10-20T10:24:46.082Z,18.49
2022-10-20T10:27:34.845Z,18.58
2022-10-20T10:30:30.132Z,18.52
2022-10-20T10:33:26.109Z,18.60
2022-10-20T10:36:18.984Z,18.67
2022-10-20T10:39:06.638Z,18.73
2022-10-20T10:42:23.613Z,18.66
2022-10-20T10:45:31.286Z,18.81
2022-10-20T10:48:51.547Z,18.74
2022-10-20T10:51:57.611Z,18.76
2022-10-20T10:55:02.220Z,18.81
2022-10-20T10:58:00.007Z,18.89
2022-10-20T11:01:05.148Z,18.88
2022-10-20T11:04:14.846Z,18.96
2022-10-20T11:07:25.435Z,19.07
2022-10-20T11:10:44.279Z,19.08
2022-10-20T11:14:05.014Z,19.03
2022-10-20T11:17:20.085Z,19.03
2022-10-20T11:20:31.771Z,19.05
2022-10-20T11:23:37.044Z,19.07
2022-10-20T11:26:29.409Z,19.03
2022-10-20T11:29:30.262Z,19.10
2022-10-20T11:32:29.824Z,19.20
2022-10-20T11:35:24.427Z,19.23
2022-10-20T11:38:33.835Z,19.23
2022-10-20T11:41:29.870Z,19.33
2022-10-20T11:44:42.290Z,19.28
2022-10-20T11:47:46.799Z,19.19
2022-10-20T11:50:33.313Z,19.39
2022-10-20T11:53:25.038Z,18.83
2022-10-20T11:56:14.130Z,19.09
2022-10-20T11:59:26.035Z,19.18
2022-10-20T12:02:24.344Z,19.19
2022-10-20T12:05:25.241Z,19.17
2022-10-20T12:08:34.209Z,18.50
2022-10-20T12:11:48.203Z,19.26
2022-10-20T12:14:40.685Z,19.42
2022-10-20T12:17:33.652Z,19.46
2022-10-20T12:20:22.936Z,19.62
2022-10-20T12:23:44.041Z,19.61
2022-10-20T12:26:30.248Z,19.74
2022-10-20T12:29:31.320Z,19.80
2022-10-20T12:32:29.194Z,19.85
2022-10-20T12:35:15.437Z,19.99
2022-10-20T12:38:04.031Z,20.06
2022-10-20T12:40:57.973Z,20.04
2022-10-20T12:43:53.442Z,19.98
2022-10-20T12:46:43.104Z,20.12
2022-10-20T12:49:32.825Z,20.28
2022-10-20T12:52:27.027Z,20.29
2022-10-20T12:55:18.849Z,20.35
2022-10-20T12:58:13.302Z,20.43
2022-10-20T13:00:59.349Z,20.52
2022-10-20T13:03:49.486Z,20.73
2022-10-20T13:06:40.382Z,20.82
2022-10-20T13:09:26.385Z,21.01
2022-10-20T13:12:26.531Z,21.15
2022-10-20T13:15:16.390Z,21.33
2022-10-20T13:18:13.409Z,21.54
2022-10-20T13:21:25.754Z,21.67
2022-10-20T13:24:31.815Z,21.81
2022-10-20T13:27:17.708Z,22.18
2022-10-20T13:30:08.718Z,22.75
2022-10-20T13:33:17.812Z,23.35
2022-10-20T13:36:15.505Z,23.86
2022-10-20T13:39:07.465Z,24.31
2022-10-20T13:42:23.459Z,24.66
2022-10-20T13:45:12.545Z,24.71
2022-10-20T13:48:13.850Z,24.50
2022-10-20T13:51:04.108Z,24.31
2022-10-20T13:53:52.918Z,24.19
2022-10-20T13:56:47.302Z,24.04
2022-10-20T13:59:33.521Z,23.95
2022-10-20T14:02:30.007Z,23.76
2022-10-20T14:05:20.071Z,23.57
2022-10-20T14:08:17.110Z,23.35
2022-10-20T14:11:08.501Z,23.25
2022-10-20T14:13:56.417Z,23.06
2022-10-20T14:16:55.108Z,22.90
2022-10-20T14:19:43.413Z,22.73
2022-10-20T14:22:32.303Z,22.58
2022-10-20T14:25:18.282Z,22.43
2022-10-20T14:28:06.779Z,22.24
2022-10-20T14:30:54.098Z,22.09
2022-10-20T14:33:44.743Z,22.01
2022-10-20T14:36:33.113Z,21.80
2022-10-20T14:39:26.773Z,21.48
2022-10-20T14:42:29.956Z,21.15
2022-10-20T14:45:25.071Z,21.09
2022-10-20T14:48:15.450Z,20.92
2022-10-20T14:51:02.869Z,20.75
2022-10-20T14:53:53.319Z,20.63
2022-10-20T14:56:44.948Z,20.47
2022-10-20T14:59:33.438Z,20.30
2022-10-20T15:02:28.974Z,20.22
2022-10-20T15:05:27.285Z,20.05
2022-10-20T15:08:31.502Z,19.81
2022-10-20T15:11:23.436Z,19.73
2022-10-20T15:14:15.764Z,19.65
2022-10-20T15:17:02.021Z,19.43
2022-10-20T15:19:47.934Z,19.38
2022-10-20T15:22:34.121Z,19.20
2022-10-20T15:25:20.682Z,19.29
2022-10-20T15:28:33.835Z,19.06
2022-10-20T15:31:23.337Z,18.93
2022-10-20T15:34:09.589Z,18.97
2022-10-20T15:36:55.698Z,18.96
2022-10-20T15:39:41.903Z,18.87
2022-10-20T15:42:27.705Z,18.83
2022-10-20T15:45:19.232Z,18.75
2022-10-20T15:48:05.447Z,18.74
2022-10-20T15:50:53.549Z,18.66
2022-10-20T15:53:40.300Z,18.50
2022-10-20T15:56:26.381Z,18.41
2022-10-20T15:59:12.735Z,18.45
2022-10-20T16:01:58.723Z,18.38
2022-10-20T16:04:45.016Z,18.34
2022-10-20T16:07:31.049Z,18.21
2022-10-20T16:10:17.132Z,18.22
2022-10-20T16:13:03.402Z,18.14
2022-10-20T16:15:49.518Z,18.09
2022-10-20T16:18:35.447Z,17.84
2022-10-20T16:21:21.622Z,17.91
2022-10-20T16:24:07.477Z,17.84
2022-10-20T16:26:53.488Z,17.81
2022-10-20T16:29:39.549Z,17.75
2022-10-20T16:32:25.473Z,17.66
2022-10-20T16:35:11.813Z,17.54
2022-10-20T16:37:57.983Z,17.30
2022-10-20T16:40:44.188Z,17.37
2022-10-20T16:43:30.585Z,17.29
2022-10-20T16:46:16.834Z,17.17
2022-10-20T16:49:03.445Z,17.11
2022-10-20T16:51:49.493Z,17.10
2022-10-20T16:54:36.486Z,17.01
2022-10-20T16:57:22.478Z,16.93
2022-10-20T17:00:09.857Z,16.86
2022-10-20T17:02:57.786Z,16.79
2022-10-20T17:05:43.824Z,16.77
2022-10-20T17:08:32.002Z,16.68
2022-10-20T17:11:26.954Z,16.49
2022-10-20T17:14:13.293Z,16.48
2022-10-20T17:17:00.025Z,16.43
2022-10-20T17:19:46.033Z,16.36
2022-10-20T17:22:32.741Z,16.29
2022-10-20T17:25:18.929Z,16.17
2022-10-20T17:28:05.177Z,16.14
2022-10-20T17:30:53.132Z,16.09
2022-10-20T17:33:39.712Z,15.97
2022-10-20T17:36:26.347Z,15.95
2022-10-20T17:39:14.512Z,15.85
2022-10-20T17:42:00.750Z,15.68
2022-10-20T17:44:46.745Z,15.70
2022-10-20T17:47:32.717Z,15.62
2022-10-20T17:50:18.936Z,15.58
2022-10-20T17:53:05.267Z,15.54
2022-10-20T17:55:51.615Z,15.41
2022-10-20T17:58:37.589Z,15.41
2022-10-20T18:01:30.814Z,15.28
2022-10-20T18:04:18.629Z,15.23
2022-10-20T18:07:05.564Z,15.18
2022-10-20T18:09:51.757Z,15.11
2022-10-20T18:12:38.917Z,15.10
2022-10-20T18:15:25.621Z,14.98
2022-10-20T18:18:11.474Z,14.92
2022-10-20T18:20:57.688Z,14.81
2022-10-20T18:23:45.897Z,14.79
2022-10-20T18:26:33.616Z,14.74
2022-10-20T18:29:19.518Z,14.68
2022-10-20T18:32:05.625Z,14.65
2022-10-20T18:34:51.635Z,14.54
2022-10-20T18:37:37.856Z,14.53
2022-10-20T18:40:24.743Z,14.44
2022-10-20T18:43:10.613Z,14.42
2022-10-20T18:45:56.539Z,14.31
2022-10-20T18:48:43.283Z,14.32
2022-10-20T18:51:30.591Z,14.21
2022-10-20T18:54:18.356Z,14.21
2022-10-20T18:57:04.475Z,14.08
2022-10-20T18:59:50.501Z,14.04
2022-10-20T19:02:36.530Z,14.00
2022-10-20T19:05:22.618Z,13.88
2022-10-20T19:08:08.472Z,13.95
2022-10-20T19:10:54.810Z,13.88
2022-10-20T19:13:40.726Z,13.84
2022-10-20T19:16:28.827Z,13.79
2022-10-20T19:19:14.989Z,13.71
2022-10-20T19:22:01.207Z,13.66
2022-10-20T19:24:47.043Z,13.59
2022-10-20T19:27:33.032Z,13.53
2022-10-20T19:30:19.768Z,13.48
2022-10-20T19:33:05.972Z,13.42
2022-10-20T19:35:51.954Z,13.40
2022-10-20T19:38:37.985Z,13.32
2022-10-20T19:41:24.828Z,13.27
2022-10-20T19:44:17.507Z,13.24
2022-10-20T19:47:08.161Z,13.13
2022-10-20T19:49:55.402Z,13.14
2022-10-20T19:52:41.363Z,13.12
2022-10-20T19:55:27.335Z,13.12
2022-10-20T19:58:14.359Z,13.10
2022-10-20T20:01:00.808Z,13.02
2022-10-20T20:03:47.195Z,12.86
2022-10-20T20:06:34.420Z,12.91
2022-10-20T20:09:21.155Z,12.81
2022-10-20T20:12:07.428Z,12.75
2022-10-20T20:14:54.224Z,12.72
2022-10-20T20:17:41.479Z,12.73
2022-10-20T20:20:27.457Z,12.64
2022-10-20T20:23:13.942Z,12.64
2022-10-20T20:26:02.812Z,12.57
2022-10-20T20:28:49.348Z,12.60
2022-10-20T20:31:36.274Z,12.54
2022-10-20T20:34:22.460Z,12.47
2022-10-20T20:37:08.875Z,12.42
2022-10-20T20:39:55.548Z,12.40
2022-10-20T20:42:41.460Z,12.29
2022-10-20T20:45:27.621Z,12.33
2022-10-20T20:48:13.600Z,12.22
2022-10-20T20:51:00.413Z,12.25
2022-10-20T20:53:46.615Z,12.21
2022-10-20T20:56:33.036Z,12.14
2022-10-20T20:59:19.356Z,11.94
2022-10-20T21:02:05.266Z,11.99
2022-10-20T21:04:51.201Z,12.01
2022-10-20T21:07:37.487Z,11.93
2022-10-20T21:10:23.917Z,11.90
2022-10-20T21:13:09.904Z,11.80
2022-10-20T21:16:09.130Z,11.79
2022-10-20T21:18:57.439Z,11.72
2022-10-20T21:21:47.211Z,11.66
2022-10-20T21:24:33.268Z,11.63
2022-10-20T21:27:19.457Z,11.62
2022-10-20T21:30:05.761Z,11.53
2022-10-20T21:32:51.603Z,11.51
2022-10-20T21:35:37.610Z,11.47
2022-10-20T21:38:28.579Z,11.46
2022-10-20T21:41:26.711Z,11.41
2022-10-20T21:44:14.899Z,11.38
2022-10-20T21:47:00.864Z,11.33
2022-10-20T21:49:46.864Z,11.27
2022-10-20T21:52:32.982Z,11.20
2022-10-20T21:55:18.772Z,11.25
2022-10-20T21:58:04.766Z,11.21
2022-10-20T22:00:53.935Z,11.12
2022-10-20T22:03:40.735Z,11.13
2022-10-20T22:06:27.988Z,11.07
2022-10-20T22:09:15.622Z,11.01
2022-10-20T22:12:01.811Z,10.97
2022-10-20T22:14:48.284Z,10.94
2022-10-20T22:17:34.693Z,10.90
2022-10-20T22:20:20.877Z,10.88
2022-10-20T22:23:06.904Z,10.86
2022-10-20T22:25:53.860Z,10.79
2022-10-20T22:28:40.372Z,10.84
2022-10-20T22:31:26.863Z,10.74
2022-10-20T22:34:13.114Z,10.71
2022-10-20T22:36:58.800Z,10.74
2022-10-20T22:39:44.845Z,10.68
2022-10-20T22:42:30.897Z,10.63
2022-10-20T22:45:17.216Z,10.65
2022-10-20T22:48:02.888Z,10.61
2022-10-20T22:50:48.785Z,10.57
2022-10-20T22:53:35.264Z,10.52
2022-10-20T22:56:22.445Z,10.56
2022-10-20T22:59:08.312Z,10.48
2022-10-20T23:01:54.100Z,10.44
2022-10-20T23:04:40.119Z,10.47
2022-10-20T23:07:26.131Z,10.41
2022-10-20T23:10:12.188Z,10.37
2022-10-20T23:12:58.077Z,10.37
2022-10-20T23:15:50.833Z,10.25
2022-10-20T23:18:37.193Z,10.32
2022-10-20T23:21:22.964Z,10.33
2022-10-20T23:24:09.037Z,10.25
2022-10-20T23:26:57.532Z,10.27
2022-10-20T23:29:43.638Z,10.13
2022-10-20T23:32:29.835Z,10.11
2022-10-20T23:35:15.544Z,10.15
2022-10-20T23:38:02.266Z,10.11
2022-10-20T23:40:48.040Z,10.05
2022-10-20T23:43:34.261Z,10.08
2022-10-20T23:46:19.985Z,10.00
2022-10-20T23:49:06.331Z,9.94
2022-10-20T23:51:52.362Z,9.91
2022-10-20T23:54:38.289Z,9.85
2022-10-20T23:57:24.231Z,9.80
